Time;durP1;ratioP1;P1;durP2;ratioP2;P2;SDS_P1;SDS_P2;PMS_P1;PMS_P2;Temp;Humidity;BMP_temperature;BMP_pressure;BME280_temperature;BME280_humidity;BME280_pressure;Samples;Min_cycle;Max_cycle;Signal;HPM_P1;HPM_P2
2022/07/23 00:00:09;;;;;;;33.77;32.00;;;26.20;58.10;;;;;;4970506;28;20564;-69
2022/07/23 00:02:36;;;;;;;36.13;34.33;;;26.20;58.30;;;;;;4966497;28;20575;-68
2022/07/23 00:05:04;;;;;;;37.33;35.40;;;26.10;58.60;;;;;;4969597;28;20463;-69
2022/07/23 00:07:30;;;;;;;38.00;36.00;;;26.20;58.70;;;;;;4965555;28;20575;-69
2022/07/23 00:09:59;;;;;;;36.80;35.10;;;26.10;59.00;;;;;;4963019;28;20483;-69
2022/07/23 00:12:26;;;;;;;34.13;32.43;;;26.00;59.00;;;;;;4966260;28;20467;-69
2022/07/23 00:14:53;;;;;;;34.80;32.90;;;26.10;58.60;;;;;;4969241;28;20472;-69
2022/07/23 00:17:20;;;;;;;36.00;34.20;;;26.00;58.70;;;;;;4967582;28;20580;-68
2022/07/23 00:19:47;;;;;;;36.07;34.13;;;26.00;59.00;;;;;;4966326;28;20833;-68
2022/07/23 00:22:14;;;;;;;35.17;33.47;;;25.90;59.00;;;;;;4968493;28;20481;-69
2022/07/23 00:24:41;;;;;;;35.43;33.63;;;25.80;59.30;;;;;;4968624;28;20474;-69
2022/07/23 00:27:09;;;;;;;38.37;36.47;;;25.80;59.50;;;;;;4967048;28;20468;-69
2022/07/23 00:29:36;;;;;;;37.83;35.77;;;25.80;59.50;;;;;;4968845;28;20488;-69
2022/07/23 00:32:04;;;;;;;34.10;32.30;;;25.80;59.50;;;;;;4961703;28;20578;-72
2022/07/23 00:34:31;;;;;;;34.03;32.33;;;25.70;59.90;;;;;;4960641;28;20466;-70
2022/07/23 00:36:58;;;;;;;34.43;32.83;;;25.70;60.20;;;;;;4966587;28;20538;-70
2022/07/23 00:39:25;;;;;;;34.73;32.93;;;25.60;60.30;;;;;;4970010;28;20555;-71
2022/07/23 00:41:52;;;;;;;35.60;33.80;;;25.60;60.80;;;;;;4966793;28;20987;-72
2022/07/23 00:44:23;;;;;;;36.20;34.40;;;25.50;62.50;;;;;;4964502;28;20587;-70
2022/07/23 00:46:53;;;;;;;36.23;34.40;;;25.30;64.20;;;;;;4966831;28;20991;-72
2022/07/23 00:49:21;;;;;;;34.40;32.70;;;25.30;64.70;;;;;;4968125;28;20483;-70
2022/07/23 00:51:49;;;;;;;34.50;32.80;;;25.10;65.50;;;;;;4967295;28;21020;-70
2022/07/23 00:54:16;;;;;;;35.17;33.47;;;25.00;65.60;;;;;;4970468;28;20487;-70
2022/07/23 00:56:44;;;;;;;34.07;32.37;;;24.90;66.10;;;;;;4968250;28;20467;-71
2022/07/23 00:59:11;;;;;;;34.60;32.90;;;24.80;66.40;;;;;;4966092;28;20478;-70
2022/07/23 01:01:40;;;;;;;33.70;32.10;;;24.60;66.80;;;;;;4965310;28;20858;-70
2022/07/23 01:04:08;;;;;;;34.23;32.53;;;24.60;67.10;;;;;;4969459;28;20542;-71
2022/07/23 01:06:37;;;;;;;34.73;33.03;;;24.60;67.00;;;;;;4964934;28;20549;-70
2022/07/23 01:09:06;;;;;;;34.70;33.00;;;24.60;66.50;;;;;;4961282;28;20551;-70
2022/07/23 01:11:33;;;;;;;34.53;32.83;;;24.40;66.70;;;;;;4965376;28;20488;-70
2022/07/23 01:14:08;;;;;;;33.80;32.10;;;24.40;67.10;;;;;;4970743;28;20467;-70
2022/07/23 01:16:35;;;;;;;35.43;33.73;;;24.30;67.70;;;;;;4963688;28;20483;-71
2022/07/23 01:19:06;;;;;;;34.00;32.40;;;24.30;68.20;;;;;;4967420;28;20818;-68
2022/07/23 01:21:35;;;;;;;33.70;32.03;;;24.30;67.40;;;;;;4963912;28;20463;-70
2022/07/23 01:24:03;;;;;;;33.37;31.60;;;24.20;67.50;;;;;;4971297;28;20876;-68
2022/07/23 01:26:31;;;;;;;34.23;32.30;;;24.30;66.80;;;;;;4963738;28;20467;-69
2022/07/23 01:28:57;;;;;;;34.50;32.70;;;24.30;66.70;;;;;;4968430;28;20487;-69
2022/07/23 01:31:24;;;;;;;32.63;30.93;;;24.20;66.30;;;;;;4967837;28;20459;-68
2022/07/23 01:33:51;;;;;;;34.47;32.77;;;24.30;66.30;;;;;;4973229;28;20904;-69
2022/07/23 01:36:18;;;;;;;36.97;35.00;;;24.20;66.50;;;;;;4960286;28;20558;-68
2022/07/23 01:38:45;;;;;;;36.50;34.80;;;24.20;66.10;;;;;;4969532;28;20566;-69
2022/07/23 01:41:14;;;;;;;35.87;34.17;;;24.30;65.80;;;;;;4964928;28;20538;-70
2022/07/23 01:43:41;;;;;;;35.60;33.90;;;24.30;65.90;;;;;;4965243;28;20928;-72
2022/07/23 01:46:08;;;;;;;35.10;33.23;;;24.30;66.30;;;;;;4965442;28;20455;-70
2022/07/23 01:48:35;;;;;;;36.30;34.50;;;24.30;67.30;;;;;;4964979;28;20678;-70
2022/07/23 01:51:02;;;;;;;35.50;33.80;;;24.20;67.90;;;;;;4967423;28;20874;-70
2022/07/23 01:53:30;;;;;;;35.33;33.63;;;24.10;68.90;;;;;;4968107;28;20517;-70
2022/07/23 01:55:58;;;;;;;34.73;33.03;;;24.10;69.10;;;;;;4965701;28;20459;-71
2022/07/23 01:58:26;;;;;;;36.23;34.30;;;24.10;68.80;;;;;;4960745;28;20605;-71
2022/07/23 02:00:54;;;;;;;33.20;31.60;;;24.00;68.80;;;;;;4958408;28;20546;-71
2022/07/23 02:03:21;;;;;;;34.40;32.70;;;24.00;68.40;;;;;;4957279;28;20582;-70
2022/07/23 02:05:48;;;;;;;38.63;36.70;;;24.10;67.50;;;;;;4968462;28;20546;-70
2022/07/23 02:08:15;;;;;;;52.17;49.60;;;24.00;67.50;;;;;;4965114;28;20577;-70
2022/07/23 02:10:42;;;;;;;36.40;34.80;;;23.90;67.40;;;;;;4965990;28;20531;-70
2022/07/23 02:13:09;;;;;;;36.00;34.20;;;23.90;67.70;;;;;;4968254;28;20543;-70
2022/07/23 02:15:37;;;;;;;34.67;32.90;;;23.80;67.80;;;;;;4964912;28;20875;-72
2022/07/23 02:18:04;;;;;;;33.50;31.90;;;23.70;68.40;;;;;;4964598;28;20531;-70
2022/07/23 02:20:32;;;;;;;34.13;32.53;;;23.70;68.90;;;;;;4965638;28;21024;-70
2022/07/23 02:22:59;;;;;;;33.87;32.17;;;23.70;69.10;;;;;;4964573;28;20493;-71
2022/07/23 02:25:25;;;;;;;32.87;31.10;;;23.70;69.50;;;;;;4966016;28;20582;-71
2022/07/23 02:27:52;;;;;;;33.80;32.20;;;23.60;69.90;;;;;;4968092;28;20469;-70
2022/07/23 02:30:19;;;;;;;36.17;34.43;;;23.60;69.30;;;;;;4966579;28;20951;-70
2022/07/23 02:32:48;;;;;;;32.87;31.27;;;23.60;69.00;;;;;;4966188;28;20546;-68
2022/07/23 02:35:14;;;;;;;35.87;34.10;;;23.50;69.10;;;;;;4965014;28;20554;-68
2022/07/23 02:37:41;;;;;;;35.40;33.80;;;23.50;69.40;;;;;;4962384;28;20554;-68
2022/07/23 02:40:09;;;;;;;34.10;32.50;;;23.50;69.20;;;;;;4960682;28;20910;-68
2022/07/23 02:42:36;;;;;;;41.83;39.70;;;23.50;69.70;;;;;;4961400;28;20475;-68
2022/07/23 02:45:03;;;;;;;36.87;34.97;;;23.40;70.10;;;;;;4960495;28;20462;-68
2022/07/23 02:47:31;;;;;;;36.30;34.50;;;23.50;70.30;;;;;;4965462;28;20557;-70
2022/07/23 02:50:00;;;;;;;35.07;33.37;;;23.50;69.90;;;;;;4966948;28;20561;-70
2022/07/23 02:52:27;;;;;;;32.03;30.53;;;23.40;70.40;;;;;;4963811;28;20461;-71
2022/07/23 02:54:53;;;;;;;46.70;44.30;;;23.40;70.60;;;;;;4965551;28;20538;-70
2022/07/23 02:57:20;;;;;;;34.23;32.53;;;23.40;70.70;;;;;;4970871;28;20487;-70
2022/07/23 02:59:47;;;;;;;34.93;33.10;;;23.40;70.00;;;;;;4975717;28;20559;-70
2022/07/23 03:02:14;;;;;;;33.77;32.07;;;23.50;69.70;;;;;;4965481;28;20558;-70
2022/07/23 03:04:42;;;;;;;34.67;32.97;;;23.40;69.80;;;;;;4970129;28;20495;-71
2022/07/23 03:07:10;;;;;;;40.57;38.60;;;23.40;69.90;;;;;;4964678;28;20458;-70
2022/07/23 03:09:37;;;;;;;34.77;33.10;;;23.40;70.00;;;;;;4970333;28;20573;-70
2022/07/23 03:12:04;;;;;;;33.03;31.43;;;23.40;69.80;;;;;;4968753;28;20571;-70
2022/07/23 03:14:31;;;;;;;32.43;30.83;;;23.50;69.50;;;;;;4969833;28;20534;-70
2022/07/23 03:16:59;;;;;;;35.30;32.70;;;23.50;69.40;;;;;;4961634;28;20469;-70
2022/07/23 03:19:26;;;;;;;34.20;32.60;;;23.40;69.50;;;;;;4968596;28;20992;-70
2022/07/23 03:21:53;;;;;;;32.13;30.63;;;23.30;70.10;;;;;;4969388;28;21237;-70
2022/07/23 03:24:23;;;;;;;36.20;34.50;;;23.30;70.40;;;;;;4971988;28;20487;-71
2022/07/23 03:26:50;;;;;;;35.70;34.03;;;23.30;70.80;;;;;;4968824;28;20467;-70
2022/07/23 03:29:17;;;;;;;33.33;31.73;;;23.20;70.80;;;;;;4968856;28;20558;-70
2022/07/23 03:31:44;;;;;;;35.13;33.43;;;23.30;70.90;;;;;;4969207;28;20521;-68
2022/07/23 03:34:11;;;;;;;34.60;32.90;;;23.30;70.90;;;;;;4971184;28;20458;-70
2022/07/23 03:36:38;;;;;;;44.90;42.73;;;23.20;71.00;;;;;;4967559;28;20555;-70
2022/07/23 03:39:05;;;;;;;33.23;31.70;;;23.20;71.10;;;;;;4970447;28;20484;-71
2022/07/23 03:41:33;;;;;;;32.93;31.13;;;23.20;71.10;;;;;;4968967;28;20964;-70
2022/07/23 03:44:00;;;;;;;33.90;32.20;;;23.30;71.40;;;;;;4969839;28;20565;-70
2022/07/23 03:46:27;;;;;;;34.30;32.70;;;23.20;71.90;;;;;;4969366;28;20553;-70
2022/07/23 03:48:54;;;;;;;36.80;35.03;;;23.10;72.10;;;;;;4968701;28;20621;-70
2022/07/23 03:51:21;;;;;;;34.97;33.27;;;23.10;72.00;;;;;;4966104;28;20549;-71
2022/07/23 03:53:48;;;;;;;33.17;31.47;;;23.10;71.80;;;;;;4969877;28;20876;-70
2022/07/23 03:56:15;;;;;;;34.57;32.87;;;23.10;71.90;;;;;;4967896;28;20458;-70
2022/07/23 03:58:44;;;;;;;32.80;31.20;;;23.10;71.80;;;;;;4970068;28;20482;-68
2022/07/23 04:01:12;;;;;;;39.60;37.43;;;23.10;71.70;;;;;;4967872;28;20554;-68
2022/07/23 04:03:39;;;;;;;37.00;35.30;;;23.10;71.80;;;;;;4968432;28;21212;-68
2022/07/23 04:06:06;;;;;;;34.10;32.47;;;23.10;71.90;;;;;;4969612;28;20467;-68
2022/07/23 04:08:33;;;;;;;34.20;32.50;;;23.00;72.20;;;;;;4969237;28;20566;-70
2022/07/23 04:11:00;;;;;;;34.17;32.30;;;23.10;72.10;;;;;;4968521;28;20593;-70
2022/07/23 04:13:27;;;;;;;38.77;36.97;;;23.10;72.00;;;;;;4970347;28;20459;-70
2022/07/23 04:15:55;;;;;;;35.27;33.60;;;23.10;72.20;;;;;;4969105;28;20559;-71
2022/07/23 04:18:23;;;;;;;35.77;34.10;;;23.10;72.20;;;;;;4964911;28;20482;-72
2022/07/23 04:20:51;;;;;;;39.03;37.23;;;23.20;71.90;;;;;;4962089;28;20517;-70
2022/07/23 04:23:18;;;;;;;35.50;33.80;;;23.30;71.80;;;;;;4966450;28;20489;-70
2022/07/23 04:25:48;;;;;;;36.37;34.50;;;23.30;71.50;;;;;;4966864;28;20465;-70
2022/07/23 04:28:15;;;;;;;35.43;33.53;;;23.30;71.30;;;;;;4966925;28;20469;-70
2022/07/23 04:30:42;;;;;;;37.87;36.03;;;23.40;71.20;;;;;;4970757;28;20541;-71
2022/07/23 04:33:10;;;;;;;42.53;40.40;;;23.40;71.10;;;;;;4962118;28;20558;-70
2022/07/23 04:35:38;;;;;;;33.90;32.27;;;23.40;70.90;;;;;;4962233;28;20636;-70
2022/07/23 04:38:05;;;;;;;37.60;35.90;;;23.40;70.60;;;;;;4965419;28;20949;-71
2022/07/23 04:40:32;;;;;;;35.10;33.40;;;23.50;70.40;;;;;;4965347;28;20542;-70
2022/07/23 04:42:59;;;;;;;34.93;32.97;;;23.50;70.10;;;;;;4967916;28;20471;-71
2022/07/23 04:45:26;;;;;;;35.17;33.37;;;23.50;70.10;;;;;;4969469;28;20553;-70
2022/07/23 04:47:53;;;;;;;36.13;34.43;;;23.50;69.90;;;;;;4964196;28;20549;-71
2022/07/23 04:50:22;;;;;;;41.33;39.53;;;23.60;69.90;;;;;;4965785;28;20482;-68
2022/07/23 04:52:49;;;;;;;37.77;35.97;;;23.50;70.00;;;;;;4965757;28;20474;-69
2022/07/23 04:55:16;;;;;;;48.40;46.07;;;23.60;70.00;;;;;;4971136;28;20455;-68
2022/07/23 04:57:43;;;;;;;41.80;39.70;;;23.60;70.00;;;;;;4968144;28;20550;-68
2022/07/23 05:00:12;;;;;;;36.83;34.93;;;23.50;70.20;;;;;;4965989;28;20562;-68
2022/07/23 05:02:39;;;;;;;38.93;37.10;;;23.60;70.10;;;;;;4959471;28;20475;-68
2022/07/23 05:05:07;;;;;;;48.33;46.03;;;23.60;70.00;;;;;;4968946;28;20481;-70
2022/07/23 05:07:35;;;;;;;34.50;32.70;;;23.70;69.50;;;;;;4961071;28;20534;-71
2022/07/23 05:10:02;;;;;;;33.40;31.70;;;23.70;69.60;;;;;;4966926;28;20510;-70
2022/07/23 05:12:29;;;;;;;37.20;35.30;;;23.80;69.50;;;;;;4968428;28;20961;-70
2022/07/23 05:14:56;;;;;;;41.80;39.70;;;23.90;69.60;;;;;;4966794;28;20490;-73
2022/07/23 05:17:23;;;;;;;34.57;32.77;;;24.00;68.90;;;;;;4957843;28;20546;-71
2022/07/23 05:19:50;;;;;;;34.37;32.67;;;24.20;68.20;;;;;;4966245;28;20582;-72
2022/07/23 05:22:17;;;;;;;35.47;33.70;;;24.10;68.30;;;;;;4965409;28;20867;-71
2022/07/23 05:24:45;;;;;;;34.00;32.40;;;24.20;68.10;;;;;;4968131;28;20570;-72
2022/07/23 05:27:12;;;;;;;40.70;38.80;;;24.30;67.80;;;;;;4965405;28;20542;-73
2022/07/23 05:29:39;;;;;;;38.60;36.73;;;24.50;67.20;;;;;;4959691;28;20476;-73
2022/07/23 05:32:06;;;;;;;41.30;39.33;;;24.60;66.90;;;;;;4960933;28;20471;-75
2022/07/23 05:34:33;;;;;;;40.67;38.77;;;24.70;66.80;;;;;;4960595;28;20462;-72
2022/07/23 05:37:00;;;;;;;40.50;38.50;;;24.80;66.50;;;;;;4960509;28;20545;-72
2022/07/23 05:39:27;;;;;;;35.27;33.57;;;25.00;66.20;;;;;;4962332;28;20534;-72
2022/07/23 05:41:55;;;;;;;34.23;32.53;;;25.20;66.30;;;;;;4966895;28;20471;-72
2022/07/23 05:44:23;;;;;;;36.37;34.47;;;25.30;65.80;;;;;;4965200;28;20575;-71
2022/07/23 05:46:50;;;;;;;33.40;31.80;;;25.20;65.40;;;;;;4966128;28;20473;-71
2022/07/23 05:49:16;;;;;;;39.30;37.40;;;25.30;65.20;;;;;;4963672;28;20511;-73
2022/07/23 05:51:43;;;;;;;33.73;32.13;;;25.30;64.40;;;;;;4966009;28;20551;-71
2022/07/23 05:54:10;;;;;;;35.57;33.80;;;25.40;63.90;;;;;;4968075;28;20572;-70
2022/07/23 05:56:37;;;;;;;39.10;37.20;;;25.20;65.20;;;;;;4963725;28;20456;-70
2022/07/23 05:59:05;;;;;;;52.77;50.13;;;25.00;65.80;;;;;;4963540;28;20490;-73
2022/07/23 06:01:32;;;;;;;36.80;34.73;;;24.90;65.90;;;;;;4967529;28;20472;-73
2022/07/23 06:03:59;;;;;;;38.00;36.13;;;24.80;66.10;;;;;;4962310;28;20565;-73
2022/07/23 06:06:26;;;;;;;44.80;42.50;;;24.80;65.60;;;;;;4965592;28;20554;-74
2022/07/23 06:08:53;;;;;;;34.13;32.30;;;24.70;65.80;;;;;;4968581;28;20566;-75
2022/07/23 06:11:20;;;;;;;36.37;34.50;;;24.60;66.20;;;;;;4968977;28;20494;-77
2022/07/23 06:13:47;;;;;;;32.73;31.13;;;24.60;66.00;;;;;;4967605;28;20464;-75
2022/07/23 06:16:15;;;;;;;40.10;38.10;;;24.60;66.10;;;;;;4961554;28;20502;-74
2022/07/23 06:18:43;;;;;;;37.93;36.17;;;24.60;65.70;;;;;;4966377;28;20582;-75
2022/07/23 06:21:10;;;;;;;34.30;32.60;;;24.60;65.40;;;;;;4968200;28;20459;-75
2022/07/23 06:23:37;;;;;;;35.43;33.73;;;24.80;65.00;;;;;;4967348;28;20589;-75
2022/07/23 06:26:04;;;;;;;50.17;47.37;;;25.00;64.50;;;;;;4968781;28;20574;-79
2022/07/23 06:28:31;;;;;;;40.30;38.37;;;25.20;63.60;;;;;;4964458;28;20878;-77
2022/07/23 06:30:58;;;;;;;50.80;48.30;;;25.40;63.20;;;;;;4965163;28;20464;-72
2022/07/23 06:33:26;;;;;;;35.00;33.23;;;25.50;62.90;;;;;;4958784;28;20554;-77
2022/07/23 06:35:53;;;;;;;38.67;36.60;;;25.70;62.10;;;;;;4964534;28;20843;-74
2022/07/23 06:38:20;;;;;;;43.80;41.43;;;25.70;62.20;;;;;;4965147;28;20567;-72
2022/07/23 06:40:47;;;;;;;34.23;32.43;;;25.90;61.90;;;;;;4970104;28;20573;-73
2022/07/23 06:43:14;;;;;;;41.97;39.80;;;25.90;62.10;;;;;;4968082;28;20899;-74
2022/07/23 06:45:41;;;;;;;46.13;43.53;;;26.00;61.80;;;;;;4964333;28;20611;-72
2022/07/23 06:48:08;;;;;;;36.13;34.23;;;26.00;60.90;;;;;;4966642;28;20481;-72
2022/07/23 06:50:37;;;;;;;38.50;36.60;;;25.80;61.10;;;;;;4969525;28;20805;-71
2022/07/23 06:53:03;;;;;;;34.80;33.10;;;25.70;61.60;;;;;;4965186;28;21046;-71
2022/07/23 06:55:31;;;;;;;39.40;37.50;;;25.80;61.30;;;;;;4965549;28;20578;-71
2022/07/23 06:58:01;;;;;;;36.27;34.47;;;25.70;61.70;;;;;;4967446;28;20482;-72
2022/07/23 07:00:28;;;;;;;38.03;36.17;;;25.60;62.10;;;;;;4966171;28;20476;-74
2022/07/23 07:02:55;;;;;;;35.13;33.40;;;25.40;62.40;;;;;;4965613;28;20586;-74
2022/07/23 07:05:25;;;;;;;39.97;37.97;;;25.50;61.60;;;;;;4967465;28;20567;-75
2022/07/23 07:07:53;;;;;;;36.37;34.57;;;25.30;62.10;;;;;;4960319;28;20471;-70
2022/07/23 07:10:20;;;;;;;36.50;34.60;;;25.30;62.50;;;;;;4968207;28;20500;-71
2022/07/23 07:12:47;;;;;;;38.20;36.20;;;25.30;62.60;;;;;;4966506;28;20549;-70
2022/07/23 07:15:14;;;;;;;39.40;37.50;;;25.20;61.90;;;;;;4964597;28;20460;-71
2022/07/23 07:17:42;;;;;;;45.30;43.00;;;24.80;62.80;;;;;;4965340;28;20567;-72
2022/07/23 07:20:11;;;;;;;33.13;31.37;;;24.60;63.40;;;;;;4968811;28;20928;-72
2022/07/23 07:22:38;;;;;;;38.33;36.43;;;24.60;63.40;;;;;;4965344;28;20467;-72
2022/07/23 07:25:10;;;;;;;34.70;32.83;;;24.70;63.40;;;;;;4965057;28;20577;-75
2022/07/23 07:27:37;;;;;;;37.23;35.23;;;24.50;64.00;;;;;;4965474;28;20556;-74
2022/07/23 07:30:07;;;;;;;36.47;34.67;;;24.60;64.10;;;;;;4963281;28;20912;-72
2022/07/23 07:32:44;;;;;;;39.43;37.23;;;24.70;64.10;;;;;;4967987;28;20463;-72
2022/07/23 07:35:11;;;;;;;36.77;34.97;;;24.60;64.30;;;;;;4968127;28;20541;-72
2022/07/23 07:37:38;;;;;;;34.60;32.70;;;24.40;65.40;;;;;;4957337;28;20598;-73
2022/07/23 07:40:06;;;;;;;41.10;38.90;;;24.40;65.60;;;;;;4964768;28;20475;-75
2022/07/23 07:42:34;;;;;;;37.47;35.47;;;24.50;65.50;;;;;;4966088;28;20458;-72
2022/07/23 07:45:01;;;;;;;51.40;48.80;;;24.80;65.50;;;;;;4972453;28;20574;-72
2022/07/23 07:47:28;;;;;;;53.37;50.63;;;24.80;65.80;;;;;;4967165;28;20565;-72
2022/07/23 07:49:56;;;;;;;37.47;35.60;;;24.80;66.60;;;;;;4968455;28;20519;-72
2022/07/23 07:52:23;;;;;;;37.13;35.23;;;24.90;67.00;;;;;;4964562;28;20470;-76
2022/07/23 07:54:49;;;;;;;35.93;34.03;;;24.70;66.80;;;;;;4970673;28;20465;-71
2022/07/23 07:57:16;;;;;;;35.13;33.40;;;24.30;67.50;;;;;;4970053;28;20582;-75
2022/07/23 07:59:45;;;;;;;33.67;31.80;;;23.90;67.60;;;;;;4966325;28;20573;-71
2022/07/23 08:02:12;;;;;;;45.27;42.97;;;23.60;68.90;;;;;;4964106;28;20611;-72
2022/07/23 08:04:40;;;;;;;38.60;36.70;;;23.50;69.40;;;;;;4959089;28;20510;-73
2022/07/23 08:07:07;;;;;;;33.63;31.93;;;23.80;69.00;;;;;;4960791;28;20533;-73
2022/07/23 08:09:34;;;;;;;38.50;36.50;;;24.30;67.70;;;;;;4958742;28;20558;-73
2022/07/23 08:12:01;;;;;;;33.83;32.13;;;24.60;66.10;;;;;;4961181;28;20526;-72
2022/07/23 08:14:28;;;;;;;43.40;40.93;;;24.60;66.00;;;;;;4961076;28;20463;-72
2022/07/23 08:16:56;;;;;;;48.20;45.63;;;24.90;65.70;;;;;;4956897;28;20551;-73
2022/07/23 08:19:23;;;;;;;38.40;36.50;;;25.20;64.30;;;;;;4962621;28;20575;-71
2022/07/23 08:21:50;;;;;;;35.00;33.10;;;25.40;63.60;;;;;;4967323;28;20483;-70
2022/07/23 08:24:17;;;;;;;38.73;36.93;;;25.40;63.20;;;;;;4966553;28;20484;-70
2022/07/23 08:26:44;;;;;;;37.80;36.00;;;25.20;63.70;;;;;;4969924;28;20483;-69
2022/07/23 08:29:11;;;;;;;34.90;33.20;;;25.10;64.10;;;;;;4971428;28;20571;-70
2022/07/23 08:31:40;;;;;;;51.53;48.83;;;25.00;64.50;;;;;;4967788;28;21313;-71
2022/07/23 08:34:08;;;;;;;48.23;45.77;;;25.10;64.40;;;;;;4964371;28;20561;-71
2022/07/23 08:36:35;;;;;;;42.07;39.87;;;25.30;64.00;;;;;;4967341;28;20504;-71
2022/07/23 08:39:03;;;;;;;34.67;32.57;;;25.40;63.40;;;;;;4971789;28;20521;-71
2022/07/23 08:41:31;;;;;;;41.70;39.63;;;25.50;63.80;;;;;;4969221;28;20544;-71
2022/07/23 08:44:00;;;;;;;33.90;32.30;;;25.70;63.30;;;;;;4971171;28;21056;-71
2022/07/23 08:46:28;;;;;;;39.47;37.07;;;26.10;62.10;;;;;;4971381;28;20453;-71
2022/07/23 08:48:56;;;;;;;36.07;34.27;;;26.40;61.50;;;;;;4962764;28;20606;-70
2022/07/23 08:51:27;;;;;;;35.70;33.70;;;26.60;61.20;;;;;;4967103;28;20510;-71
2022/07/23 08:53:57;;;;;;;44.40;42.10;;;26.90;60.20;;;;;;4964534;28;20482;-72
2022/07/23 08:56:24;;;;;;;43.17;41.00;;;27.00;58.80;;;;;;4970715;28;20455;-70
2022/07/23 08:58:51;;;;;;;36.90;35.00;;;27.10;58.80;;;;;;4968658;28;20481;-71
2022/07/23 09:01:18;;;;;;;34.90;33.20;;;27.30;57.70;;;;;;4970449;28;20462;-71
2022/07/23 09:03:45;;;;;;;45.57;43.17;;;27.40;57.60;;;;;;4966461;28;20530;-72
2022/07/23 09:06:12;;;;;;;50.47;47.90;;;27.50;57.00;;;;;;4970146;28;20478;-70
2022/07/23 09:08:43;;;;;;;34.03;32.30;;;27.70;56.50;;;;;;4962583;28;20492;-71
2022/07/23 09:11:12;;;;;;;44.00;41.70;;;27.80;56.10;;;;;;4968815;28;20545;-71
2022/07/23 09:13:42;;;;;;;35.77;33.93;;;27.90;55.60;;;;;;4970562;28;20554;-70
2022/07/23 09:16:12;;;;;;;51.40;48.73;;;27.80;55.50;;;;;;4955093;28;20467;-70
2022/07/23 09:18:43;;;;;;;40.07;37.97;;;27.60;56.20;;;;;;4964792;28;20845;-72
2022/07/23 09:21:16;;;;;;;47.37;44.90;;;27.70;56.50;;;;;;4969884;28;20491;-72
2022/07/23 09:23:46;;;;;;;51.63;49.03;;;28.00;56.10;;;;;;4970592;28;20957;-72
2022/07/23 09:26:34;;;;;;;37.57;35.67;;;28.40;54.90;;;;;;4966341;28;20475;-72
2022/07/23 09:29:07;;;;;;;41.77;39.63;;;28.80;54.20;;;;;;4967639;28;20922;-74
2022/07/23 09:31:43;;;;;;;41.37;39.27;;;29.10;52.70;;;;;;4967752;28;21015;-72
2022/07/23 09:34:16;;;;;;;48.53;45.93;;;29.40;52.30;;;;;;4967695;28;20549;-72
2022/07/23 09:36:43;;;;;;;39.20;37.00;;;29.80;51.00;;;;;;4963456;28;20476;-72
2022/07/23 09:39:13;;;;;;;42.73;40.60;;;30.00;50.40;;;;;;4970552;28;20509;-72
2022/07/23 09:41:42;;;;;;;36.83;35.03;;;30.10;50.10;;;;;;4967871;28;20459;-72
2022/07/23 09:44:11;;;;;;;35.20;33.20;;;30.10;49.90;;;;;;4960340;28;20932;-72
2022/07/23 09:46:40;;;;;;;43.43;41.23;;;29.90;50.00;;;;;;4968230;28;20562;-74
2022/07/23 09:49:19;;;;;;;41.50;39.40;;;29.90;50.20;;;;;;4973844;28;21008;-72
2022/07/23 09:51:52;;;;;;;62.43;59.43;;;30.00;50.00;;;;;;4962871;28;20458;-75
2022/07/23 09:54:32;;;;;;;40.60;38.60;;;29.50;50.10;;;;;;4961580;28;20463;-72
2022/07/23 09:57:00;;;;;;;40.00;38.00;;;29.10;51.40;;;;;;4964328;28;20473;-74
2022/07/23 09:59:30;;;;;;;53.80;51.17;;;29.00;51.40;;;;;;4966972;28;20483;-73
2022/07/23 10:02:00;;;;;;;36.37;34.57;;;28.90;51.70;;;;;;4965390;28;20473;-73
2022/07/23 10:04:27;;;;;;;59.80;56.70;;;28.90;51.80;;;;;;4967405;28;20833;-73
2022/07/23 10:06:56;;;;;;;49.07;46.53;;;28.70;52.20;;;;;;4963733;28;20554;-72
2022/07/23 10:09:28;;;;;;;43.30;41.00;;;28.40;53.20;;;;;;4964817;28;20562;-74
2022/07/23 10:12:02;;;;;;;44.07;41.77;;;28.20;53.70;;;;;;4965687;28;20960;-70
2022/07/23 10:14:31;;;;;;;37.03;35.03;;;28.00;54.40;;;;;;4966354;28;20997;-70
2022/07/23 10:16:58;;;;;;;38.07;36.17;;;27.90;54.90;;;;;;4960778;28;20467;-70
2022/07/23 10:19:26;;;;;;;58.23;55.47;;;27.90;54.90;;;;;;4964094;28;20491;-71
2022/07/23 10:21:58;;;;;;;54.87;52.03;;;28.10;54.60;;;;;;4966203;28;20550;-72
2022/07/23 10:24:39;;;;;;;55.30;52.37;;;28.10;54.70;;;;;;4967146;28;20558;-72
2022/07/23 10:27:24;;;;;;;41.53;39.47;;;28.30;54.60;;;;;;4965713;28;20463;-73
2022/07/23 10:29:55;;;;;;;37.87;35.97;;;28.50;54.00;;;;;;4960168;28;20545;-73
2022/07/23 10:32:32;;;;;;;38.57;36.50;;;28.70;53.40;;;;;;4966655;28;21733;-75
2022/07/23 10:35:08;;;;;;;42.47;40.30;;;28.80;53.50;;;;;;4965511;28;20549;-73
2022/07/23 10:37:39;;;;;;;41.43;39.30;;;29.00;52.40;;;;;;4964243;28;20917;-73
2022/07/23 10:40:17;;;;;;;34.70;32.67;;;29.30;51.30;;;;;;4960609;28;20822;-71
2022/07/23 10:42:44;;;;;;;51.70;49.10;;;29.00;51.20;;;;;;4968545;28;20463;-70
2022/07/23 10:45:26;;;;;;;43.63;41.40;;;28.70;51.00;;;;;;4964614;28;21081;-73
2022/07/23 10:47:54;;;;;;;48.70;46.20;;;28.60;50.90;;;;;;4958690;28;20958;-72
2022/07/23 10:50:23;;;;;;;35.07;33.37;;;28.40;50.90;;;;;;4965188;28;20579;-75
2022/07/23 10:53:18;;;;;;;56.30;53.37;;;28.50;50.50;;;;;;4959572;28;20466;-70
2022/07/23 10:55:51;;;;;;;38.60;36.60;;;28.40;51.20;;;;;;4960854;28;20865;-71
2022/07/23 10:58:24;;;;;;;40.27;38.27;;;28.70;50.60;;;;;;4964723;28;20563;-70
2022/07/23 11:00:51;;;;;;;44.47;42.27;;;28.50;50.70;;;;;;4967507;28;20558;-71
2022/07/23 11:03:37;;;;;;;61.97;58.97;;;28.50;50.90;;;;;;4964946;28;20534;-70
2022/07/23 11:06:06;;;;;;;56.47;53.67;;;28.40;51.10;;;;;;4963155;28;20586;-71
2022/07/23 11:08:33;;;;;;;52.13;49.53;;;28.40;51.60;;;;;;4954752;28;20511;-71
2022/07/23 11:11:12;;;;;;;38.40;36.40;;;28.80;51.50;;;;;;4965467;28;20553;-72
2022/07/23 11:13:47;;;;;;;37.33;35.33;;;29.20;50.30;;;;;;4967796;28;20549;-70
2022/07/23 11:16:18;;;;;;;35.40;33.60;;;29.10;51.00;;;;;;4960357;28;20565;-71
2022/07/23 11:19:04;;;;;;;39.03;37.03;;;29.00;51.00;;;;;;4969582;28;20537;-71
2022/07/23 11:21:51;;;;;;;64.83;61.67;;;28.90;51.10;;;;;;4971968;28;20459;-71
2022/07/23 11:24:23;;;;;;;35.50;33.70;;;28.70;52.00;;;;;;4971459;28;20459;-71
2022/07/23 11:26:57;;;;;;;39.83;37.73;;;29.20;51.50;;;;;;4966329;28;20517;-71
2022/07/23 11:29:52;;;;;;;58.17;55.30;;;29.40;50.70;;;;;;4967087;28;20478;-71
2022/07/23 11:32:24;;;;;;;39.80;37.73;;;29.70;50.60;;;;;;4964199;28;20501;-70
2022/07/23 11:34:53;;;;;;;37.80;35.93;;;30.20;49.50;;;;;;4964940;28;20455;-71
2022/07/23 11:37:37;;;;;;;50.30;47.80;;;30.20;49.70;;;;;;4965067;28;20508;-71
2022/07/23 11:40:10;;;;;;;34.97;33.07;;;29.90;49.90;;;;;;4971280;28;20569;-71
2022/07/23 11:42:53;;;;;;;37.90;36.00;;;29.90;50.50;;;;;;4971088;28;20470;-72
2022/07/23 11:45:20;;;;;;;57.63;54.70;;;29.80;50.50;;;;;;4972450;28;20506;-71
2022/07/23 11:47:47;;;;;;;59.90;56.30;;;29.80;50.80;;;;;;4971453;28;20477;-71
2022/07/23 11:50:14;;;;;;;37.83;35.93;;;29.90;50.90;;;;;;4971628;28;20570;-71
2022/07/23 11:52:41;;;;;;;37.87;35.97;;;29.50;51.70;;;;;;4971511;28;20561;-71
2022/07/23 11:55:10;;;;;;;43.10;41.00;;;29.30;52.20;;;;;;4972072;28;20469;-71
2022/07/23 11:57:39;;;;;;;48.67;46.00;;;29.30;52.40;;;;;;4968491;28;20929;-72
2022/07/23 12:00:12;;;;;;;51.50;48.80;;;29.30;52.20;;;;;;4971539;28;20481;-71
2022/07/23 12:02:39;;;;;;;42.33;40.17;;;29.50;52.00;;;;;;4971024;28;20541;-74
2022/07/23 12:05:09;;;;;;;37.90;35.60;;;29.50;51.80;;;;;;4971708;28;20545;-72
2022/07/23 12:07:38;;;;;;;46.70;44.40;;;29.50;52.40;;;;;;4970714;28;20858;-71
2022/07/23 12:10:11;;;;;;;58.17;55.27;;;29.60;51.80;;;;;;4971787;28;20578;-70
2022/07/23 12:12:39;;;;;;;38.73;36.73;;;29.70;51.20;;;;;;4970665;28;20545;-70
2022/07/23 12:15:10;;;;;;;38.00;36.00;;;29.30;51.70;;;;;;4971048;28;20482;-72
2022/07/23 12:17:39;;;;;;;50.70;48.10;;;29.40;51.80;;;;;;4962902;28;20585;-70
2022/07/23 12:20:08;;;;;;;56.53;53.57;;;29.80;51.80;;;;;;4970385;28;20503;-70
2022/07/23 12:22:38;;;;;;;46.13;43.63;;;30.10;50.60;;;;;;4966314;28;20541;-75
2022/07/23 12:25:07;;;;;;;38.50;36.40;;;30.10;50.50;;;;;;4966463;28;20475;-71
2022/07/23 12:27:35;;;;;;;59.10;55.90;;;29.90;50.80;;;;;;4969425;28;20840;-71
2022/07/23 12:30:23;;;;;;;37.57;35.37;;;29.90;50.80;;;;;;4959228;28;21174;-69
2022/07/23 12:32:52;;;;;;;44.27;41.70;;;29.40;50.50;;;;;;4960032;28;20467;-70
2022/07/23 12:35:20;;;;;;;37.53;35.63;;;29.00;51.50;;;;;;4962091;28;20463;-70